createdAt,value
2022-10-11T00:00:12.267Z,101832.34
2022-10-11T00:02:39.351Z,101832.34
2022-10-11T00:05:07.923Z,101837.78
2022-10-11T00:07:36.547Z,101833.41
2022-10-11T00:10:05.987Z,101843.28
2022-10-11T00:12:34.623Z,101847.94
2022-10-11T00:15:02.041Z,101843.66
2022-10-11T00:17:29.437Z,101839.88
2022-10-11T00:19:56.622Z,101840.91
2022-10-11T00:22:23.820Z,101841.88
2022-10-11T00:24:52.624Z,101844.59
2022-10-11T00:27:19.844Z,101837.97
2022-10-11T00:29:46.926Z,101837.38
2022-10-11T00:32:14.039Z,101830.81
2022-10-11T00:34:41.261Z,101829.66
2022-10-11T00:37:08.395Z,101833.56
2022-10-11T00:39:35.535Z,101829.09
2022-10-11T00:42:02.863Z,101822.25
2022-10-11T00:44:32.926Z,101831.06
2022-10-11T00:47:03.401Z,101824.31
2022-10-11T00:49:34.947Z,101832.38
2022-10-11T00:52:07.356Z,101828.78
2022-10-11T00:54:39.110Z,101826.13
2022-10-11T00:57:12.078Z,101823.72
2022-10-11T00:59:45.247Z,101818.69
2022-10-11T01:02:13.294Z,101815.44
2022-10-11T01:04:41.744Z,101823.53
2022-10-11T01:07:09.858Z,101829.88
2022-10-11T01:09:37.366Z,101829.22
2022-10-11T01:12:12.066Z,101819.69
2022-10-11T01:15:03.678Z,101822.53
2022-10-11T01:17:59.400Z,101825.47
2022-10-11T01:20:38.324Z,101826.78
2022-10-11T01:23:42.765Z,101823.50
2022-10-11T01:26:28.536Z,101826.59
2022-10-11T01:29:17.018Z,101824.22
2022-10-11T01:31:51.994Z,101821.63
2022-10-11T01:34:40.287Z,101815.81
2022-10-11T01:37:33.115Z,101819.75
2022-10-11T01:40:12.705Z,101821.66
2022-10-11T01:42:42.282Z,101815.81
2022-10-11T01:45:13.943Z,101808.13
2022-10-11T01:47:42.535Z,101811.81
2022-10-11T01:50:34.452Z,101805.91
2022-10-11T01:53:15.307Z,101798.78
2022-10-11T01:56:07.243Z,101803.41
2022-10-11T01:59:12.139Z,101795.84
2022-10-11T02:02:02.205Z,101795.25
2022-10-11T02:04:38.090Z,101793.44
2022-10-11T02:07:19.510Z,101797.13
2022-10-11T02:10:11.724Z,101788.47
2022-10-11T02:12:47.398Z,101790.53
2022-10-11T02:15:17.268Z,101795.25
2022-10-11T02:17:49.217Z,101790.03
2022-10-11T02:20:21.271Z,101792.91
2022-10-11T02:22:53.346Z,101793.94
2022-10-11T02:25:25.186Z,101795.66
2022-10-11T02:27:57.229Z,101801.88
2022-10-11T02:30:24.378Z,101793.09
2022-10-11T02:32:53.848Z,101793.28
2022-10-11T02:35:25.135Z,101796.19
2022-10-11T02:38:22.833Z,101793.69
2022-10-11T02:41:11.658Z,101785.03
2022-10-11T02:43:45.359Z,101786.69
2022-10-11T02:46:12.990Z,101791.28
2022-10-11T02:48:40.068Z,101793.16
2022-10-11T02:51:13.247Z,101790.75
2022-10-11T02:53:40.417Z,101793.41
2022-10-11T02:56:08.146Z,101787.34
2022-10-11T02:58:35.969Z,101790.00
2022-10-11T03:01:03.083Z,101786.47
2022-10-11T03:03:30.178Z,101791.03
2022-10-11T03:06:02.393Z,101776.94
2022-10-11T03:08:30.231Z,101786.63
2022-10-11T03:10:57.452Z,101775.31
2022-10-11T03:13:24.674Z,101782.44
2022-10-11T03:16:02.920Z,101778.16
2022-10-11T03:18:31.478Z,101780.03
2022-10-11T03:20:58.696Z,101775.56
2022-10-11T03:23:25.819Z,101779.94
2022-10-11T03:25:52.963Z,101776.56
2022-10-11T03:28:20.645Z,101780.97
2022-10-11T03:30:51.435Z,101774.94
2022-10-11T03:33:19.190Z,101784.81
2022-10-11T03:35:47.636Z,101783.09
2022-10-11T03:38:17.645Z,101778.63
2022-10-11T03:40:44.746Z,101781.28
2022-10-11T03:43:11.871Z,101784.03
2022-10-11T03:45:39.654Z,101786.69
2022-10-11T03:48:06.779Z,101788.63
2022-10-11T03:50:33.972Z,101790.44
2022-10-11T03:53:01.114Z,101795.75
2022-10-11T03:55:28.214Z,101810.25
2022-10-11T03:57:55.308Z,101805.97
2022-10-11T04:00:22.643Z,101803.41
2022-10-11T04:02:49.802Z,101808.81
2022-10-11T04:05:17.156Z,101807.16
2022-10-11T04:07:44.318Z,101806.28
2022-10-11T04:10:11.445Z,101801.84
2022-10-11T04:12:39.129Z,101801.16
2022-10-11T04:15:07.322Z,101803.72
2022-10-11T04:17:34.417Z,101800.28
2022-10-11T04:20:01.573Z,101805.84
2022-10-11T04:22:28.760Z,101797.94
2022-10-11T04:24:55.850Z,101805.97
2022-10-11T04:27:22.986Z,101803.31
2022-10-11T04:29:50.137Z,101808.63
2022-10-11T04:32:17.243Z,101804.25
2022-10-11T04:34:44.407Z,101804.34
2022-10-11T04:37:11.839Z,101807.00
2022-10-11T04:39:39.033Z,101807.16
2022-10-11T04:42:06.137Z,101806.38
2022-10-11T04:44:33.221Z,101808.25
2022-10-11T04:47:00.394Z,101805.53
2022-10-11T04:49:27.510Z,101808.25
2022-10-11T04:51:54.625Z,101810.22
2022-10-11T04:54:22.003Z,101808.41
2022-10-11T04:56:49.147Z,101813.63
2022-10-11T04:59:16.303Z,101814.50
2022-10-11T05:01:43.532Z,101807.41
2022-10-11T05:04:10.673Z,101809.34
2022-10-11T05:06:37.803Z,101816.38
2022-10-11T05:09:04.906Z,101807.56
2022-10-11T05:11:32.035Z,101816.38
2022-10-11T05:13:59.267Z,101810.13
2022-10-11T05:16:26.435Z,101814.56
2022-10-11T05:18:53.533Z,101827.78
2022-10-11T05:21:26.506Z,101824.16
2022-10-11T05:23:55.921Z,101830.25
2022-10-11T05:26:25.509Z,101816.16
2022-10-11T05:28:52.857Z,101820.44
2022-10-11T05:31:20.507Z,101828.81
2022-10-11T05:33:47.953Z,101834.09
2022-10-11T05:36:15.170Z,101831.50
2022-10-11T05:38:42.499Z,101835.13
2022-10-11T05:41:14.485Z,101829.66
2022-10-11T05:43:42.074Z,101837.22
2022-10-11T05:46:09.388Z,101836.38
2022-10-11T05:48:36.759Z,101839.78
2022-10-11T05:51:07.154Z,101850.25
2022-10-11T05:53:34.255Z,101839.47
2022-10-11T05:56:01.686Z,101840.03
2022-10-11T05:58:29.317Z,101851.28
2022-10-11T06:00:57.003Z,101842.22
2022-10-11T06:03:24.274Z,101858.78
2022-10-11T06:05:56.492Z,101854.63
2022-10-11T06:08:24.119Z,101864.84
2022-10-11T06:10:51.285Z,101855.00
2022-10-11T06:13:18.435Z,101861.88
2022-10-11T06:15:45.578Z,101866.88
2022-10-11T06:18:12.683Z,101874.28
2022-10-11T06:20:39.789Z,101872.38
2022-10-11T06:23:06.869Z,101869.94
2022-10-11T06:25:33.958Z,101869.25
2022-10-11T06:28:01.166Z,101868.06
2022-10-11T06:30:28.427Z,101866.81
2022-10-11T06:32:55.606Z,101867.31
2022-10-11T06:35:22.702Z,101876.34
2022-10-11T06:37:50.058Z,101878.56
2022-10-11T06:40:17.276Z,101876.22
2022-10-11T06:42:48.509Z,101874.94
2022-10-11T06:45:15.623Z,101882.16
2022-10-11T06:47:42.699Z,101888.66
2022-10-11T06:50:09.824Z,101887.88
2022-10-11T06:52:36.947Z,101887.16
2022-10-11T06:55:04.331Z,101888.31
2022-10-11T06:57:31.408Z,101891.78
2022-10-11T06:59:58.477Z,101888.28
2022-10-11T07:02:25.629Z,101882.88
2022-10-11T07:04:52.750Z,101892.97
2022-10-11T07:07:19.877Z,101889.38
2022-10-11T07:09:47.295Z,101881.84
2022-10-11T07:12:14.462Z,101887.13
2022-10-11T07:14:41.584Z,101893.19
2022-10-11T07:17:08.737Z,101894.97
2022-10-11T07:19:35.829Z,101896.75
2022-10-11T07:22:02.924Z,101894.41
2022-10-11T07:24:30.000Z,101906.56
2022-10-11T07:26:57.419Z,101898.41
2022-10-11T07:29:24.517Z,101900.66
2022-10-11T07:31:51.728Z,101903.81
2022-10-11T07:34:20.595Z,101907.56
2022-10-11T07:36:47.734Z,101900.53
2022-10-11T07:39:15.781Z,101910.91
2022-10-11T07:41:45.829Z,101903.44
2022-10-11T07:44:14.696Z,101910.38
2022-10-11T07:46:41.911Z,101916.66
2022-10-11T07:49:09.038Z,101904.78
2022-10-11T07:51:36.199Z,101900.28
2022-10-11T07:54:07.252Z,101902.75
2022-10-11T07:56:35.000Z,101905.75
2022-10-11T07:59:05.151Z,101906.06
2022-10-11T08:01:32.943Z,101900.13
2022-10-11T08:04:00.171Z,101904.75
2022-10-11T08:06:31.623Z,101910.22
2022-10-11T08:09:00.957Z,101907.31
2022-10-11T08:11:31.127Z,101908.13
2022-10-11T08:14:00.246Z,101901.47
2022-10-11T08:16:27.506Z,101904.97
2022-10-11T08:18:56.719Z,101904.63
2022-10-11T08:21:24.665Z,101900.94
2022-10-11T08:23:51.752Z,101902.44
2022-10-11T08:26:18.891Z,101902.91
2022-10-11T08:28:46.491Z,101903.34
2022-10-11T08:31:15.049Z,101916.28
2022-10-11T08:33:43.091Z,101906.81
2022-10-11T08:36:11.417Z,101904.25
2022-10-11T08:38:39.836Z,101914.22
2022-10-11T08:41:20.479Z,101906.53
2022-10-11T08:43:56.425Z,101915.69
2022-10-11T08:46:30.926Z,101909.84
2022-10-11T08:48:59.911Z,101909.16
2022-10-11T08:51:31.430Z,101912.09
2022-10-11T08:56:41.799Z,101912.34
2022-10-11T08:59:11.619Z,101904.03
2022-10-11T09:01:45.493Z,101907.47
2022-10-11T09:04:17.830Z,101903.28
2022-10-11T09:07:11.019Z,101901.69
2022-10-11T09:10:16.338Z,101908.44
2022-10-11T09:12:55.544Z,101901.69
2022-10-11T09:15:25.473Z,101895.78
2022-10-11T09:17:52.491Z,101902.75
2022-10-11T09:20:53.033Z,101904.69
2022-10-11T09:23:38.915Z,101902.78
2022-10-11T09:26:21.341Z,101906.78
2022-10-11T09:29:39.071Z,101900.84
2022-10-11T09:32:15.210Z,101898.59
2022-10-11T09:34:42.858Z,101900.31
2022-10-11T09:37:21.518Z,101910.63
2022-10-11T09:40:14.812Z,101907.47
2022-10-11T09:42:41.896Z,101900.00
2022-10-11T09:45:19.332Z,101896.38
2022-10-11T09:47:46.915Z,101885.47
2022-10-11T09:50:21.591Z,101892.63
2022-10-11T09:52:59.875Z,101892.13
2022-10-11T09:55:53.010Z,101884.31
2022-10-11T09:58:28.725Z,101885.19
2022-10-11T10:01:08.008Z,101881.00
2022-10-11T10:03:38.207Z,101885.97
2022-10-11T10:06:17.125Z,101893.31
2022-10-11T10:08:47.027Z,101881.09
2022-10-11T10:11:15.105Z,101884.91
2022-10-11T10:13:51.965Z,101887.97
2022-10-11T10:16:33.898Z,101880.88
2022-10-11T10:19:07.438Z,101881.88
2022-10-11T10:21:44.683Z,101875.63
2022-10-11T10:27:21.146Z,101882.59
2022-10-11T10:30:10.118Z,101878.31
2022-10-11T10:32:49.628Z,101886.97
2022-10-11T10:35:58.055Z,101892.91
2022-10-11T10:38:34.283Z,101884.28
2022-10-11T10:41:04.759Z,101885.75
2022-10-11T10:43:38.043Z,101875.06
2022-10-11T10:46:05.490Z,101874.50
2022-10-11T10:51:48.246Z,101870.88
2022-10-11T10:54:38.293Z,101871.72
2022-10-11T10:57:29.099Z,101872.00
2022-10-11T11:00:19.454Z,101873.06
2022-10-11T11:02:49.428Z,101882.19
2022-10-11T11:05:27.289Z,101871.09
2022-10-11T11:08:48.365Z,101868.84
2022-10-11T11:11:27.355Z,101875.19
2022-10-11T11:14:00.478Z,101868.44
2022-10-11T11:16:52.745Z,101872.53
2022-10-11T11:19:54.271Z,101868.81
2022-10-11T11:22:42.859Z,101864.72
2022-10-11T11:25:12.839Z,101862.22
2022-10-11T11:27:57.897Z,101857.50
2022-10-11T11:30:42.631Z,101858.28
2022-10-11T11:33:15.119Z,101855.41
2022-10-11T11:36:13.806Z,101854.97
2022-10-11T11:38:59.854Z,101847.44
2022-10-11T11:41:55.740Z,101846.34
2022-10-11T11:44:35.691Z,101838.03
2022-10-11T11:47:02.816Z,101836.22
2022-10-11T11:49:39.136Z,101845.63
2022-10-11T11:52:13.054Z,101841.03
2022-10-11T11:55:01.450Z,101844.28
2022-10-11T11:58:06.788Z,101842.78
2022-10-11T12:01:07.369Z,101835.69
2022-10-11T12:03:42.047Z,101835.50
2022-10-11T12:06:12.278Z,101832.28
2022-10-11T12:08:42.365Z,101837.53
2022-10-11T12:11:20.799Z,101841.00
2022-10-11T12:13:50.778Z,101837.06
2022-10-11T12:16:19.057Z,101830.34
2022-10-11T12:18:48.219Z,101837.59
2022-10-11T12:21:38.750Z,101829.69
2022-10-11T12:24:20.814Z,101837.03
2022-10-11T12:26:55.531Z,101827.09
2022-10-11T12:29:28.512Z,101823.72
2022-10-11T12:31:58.763Z,101823.28
2022-10-11T12:34:37.868Z,101816.91
2022-10-11T12:37:20.110Z,101822.38
2022-10-11T12:39:58.064Z,101816.38
2022-10-11T12:42:36.778Z,101818.00
2022-10-11T12:45:13.096Z,101820.22
2022-10-11T12:47:48.090Z,101814.78
2022-10-11T12:50:17.649Z,101804.94
2022-10-11T12:53:21.926Z,101808.53
2022-10-11T12:56:09.749Z,101811.84
2022-10-11T12:58:41.325Z,101811.13
2022-10-11T13:01:12.908Z,101813.31
2022-10-11T13:03:43.129Z,101810.31
2022-10-11T13:06:26.359Z,101804.94
2022-10-11T13:09:35.124Z,101802.94
2022-10-11T13:12:19.374Z,101802.94
2022-10-11T13:15:07.044Z,101797.31
2022-10-11T13:17:38.663Z,101796.38
2022-10-11T13:20:18.127Z,101796.75
2022-10-11T13:22:52.107Z,101802.44
2022-10-11T13:25:28.497Z,101794.34
2022-10-11T13:27:59.445Z,101803.63
2022-10-11T13:30:30.669Z,101800.44
2022-10-11T13:32:59.418Z,101791.13
2022-10-11T13:35:36.203Z,101790.28
2022-10-11T13:38:07.327Z,101779.00
2022-10-11T13:40:35.522Z,101783.97
2022-10-11T13:43:05.528Z,101779.44
2022-10-11T13:45:35.793Z,101781.09
2022-10-11T13:48:03.161Z,101775.91
2022-10-11T13:50:34.280Z,101779.09
2022-10-11T13:53:09.337Z,101777.38
2022-10-11T13:55:49.814Z,101779.44
2022-10-11T13:58:30.173Z,101780.13
2022-10-11T14:01:16.661Z,101771.63
2022-10-11T14:03:47.347Z,101775.03
2022-10-11T14:06:15.101Z,101772.06
2022-10-11T14:08:42.197Z,101765.94
2022-10-11T14:11:11.545Z,101769.97
2022-10-11T14:13:49.882Z,101768.78
2022-10-11T14:16:20.194Z,101778.59
2022-10-11T14:18:47.304Z,101768.59
2022-10-11T14:21:20.507Z,101772.31
2022-10-11T14:23:51.810Z,101777.53
2022-10-11T14:26:20.162Z,101762.69
2022-10-11T14:28:56.130Z,101769.44
2022-10-11T14:31:26.815Z,101764.31
2022-10-11T14:33:55.544Z,101755.31
2022-10-11T14:36:23.732Z,101755.13
2022-10-11T14:38:51.810Z,101754.59
2022-10-11T14:41:19.015Z,101753.75
2022-10-11T14:43:46.174Z,101757.13
2022-10-11T14:46:22.327Z,101752.81
2022-10-11T14:48:55.495Z,101753.66
2022-10-11T14:51:30.295Z,101752.22
2022-10-11T14:53:58.257Z,101760.13
2022-10-11T14:56:25.371Z,101753.38
2022-10-11T14:58:52.478Z,101747.28
2022-10-11T15:01:19.677Z,101752.22
2022-10-11T15:03:46.978Z,101759.06
2022-10-11T15:06:36.802Z,101751.66
2022-10-11T15:09:05.125Z,101748.66
2022-10-11T15:11:32.764Z,101748.63
2022-10-11T15:13:59.922Z,101746.53
2022-10-11T15:16:27.050Z,101748.91
2022-10-11T15:18:54.193Z,101740.03
2022-10-11T15:21:24.210Z,101747.50
2022-10-11T15:23:52.457Z,101744.81
2022-10-11T15:26:22.904Z,101754.06
2022-10-11T15:28:51.231Z,101749.72
2022-10-11T15:31:18.793Z,101759.81
2022-10-11T15:33:46.153Z,101749.22
2022-10-11T15:36:16.271Z,101752.63
2022-10-11T15:38:44.795Z,101752.22
2022-10-11T15:41:14.684Z,101757.66
2022-10-11T15:43:43.551Z,101758.38
2022-10-11T15:46:17.402Z,101759.06
2022-10-11T15:48:45.414Z,101755.66
2022-10-11T15:51:13.085Z,101754.97
2022-10-11T15:53:40.761Z,101754.78
2022-10-11T15:56:12.643Z,101754.19
2022-10-11T15:58:40.970Z,101749.78
2022-10-11T16:01:12.758Z,101753.16
2022-10-11T16:03:40.243Z,101755.56
2022-10-11T16:06:11.262Z,101749.41
2022-10-11T16:08:39.144Z,101746.28
2022-10-11T16:11:08.106Z,101742.88
2022-10-11T16:13:36.170Z,101750.03
2022-10-11T16:16:05.810Z,101750.25
2022-10-11T16:18:35.656Z,101747.38
2022-10-11T16:21:08.428Z,101743.50
2022-10-11T16:23:36.759Z,101747.69
2022-10-11T16:26:07.683Z,101744.09
2022-10-11T16:28:35.607Z,101750.53
2022-10-11T16:31:08.162Z,101750.47
2022-10-11T16:33:35.510Z,101755.41
2022-10-11T16:36:26.230Z,101752.50
2022-10-11T16:38:53.310Z,101755.09
2022-10-11T16:41:20.386Z,101758.41
2022-10-11T16:43:52.045Z,101760.03
2022-10-11T16:46:19.719Z,101760.03
2022-10-11T16:48:47.651Z,101760.94
2022-10-11T16:51:14.955Z,101759.47
2022-10-11T16:53:42.078Z,101765.22
2022-10-11T16:56:11.374Z,101771.09
2022-10-11T16:58:38.647Z,101771.59
2022-10-11T17:01:10.790Z,101767.69
2022-10-11T17:03:38.030Z,101770.88
2022-10-11T17:06:06.606Z,101759.78
2022-10-11T17:08:35.111Z,101762.00
2022-10-11T17:11:03.320Z,101768.59
2022-10-11T17:13:30.733Z,101771.63
2022-10-11T17:15:58.154Z,101769.69
2022-10-11T17:18:25.683Z,101781.72
2022-10-11T17:21:14.753Z,101772.34
2022-10-11T17:23:42.641Z,101768.28
2022-10-11T17:26:15.786Z,101770.34
2022-10-11T17:28:43.274Z,101780.56
2022-10-11T17:31:10.705Z,101775.34
2022-10-11T17:33:38.377Z,101787.50
2022-10-11T17:36:19.332Z,101779.72
2022-10-11T17:38:47.262Z,101788.22
2022-10-11T17:41:15.379Z,101790.41
2022-10-11T17:43:42.679Z,101789.03
2022-10-11T17:46:12.262Z,101800.97
2022-10-11T17:48:40.006Z,101801.22
2022-10-11T17:51:10.001Z,101797.91
2022-10-11T17:53:37.703Z,101803.59
2022-10-11T17:56:07.683Z,101795.19
2022-10-11T17:58:35.667Z,101799.91
2022-10-11T18:01:08.734Z,101810.13
2022-10-11T18:03:36.511Z,101804.97
2022-10-11T18:06:05.550Z,101802.44
2022-10-11T18:08:40.467Z,101804.47
2022-10-11T18:11:16.795Z,101806.53
2022-10-11T18:13:46.902Z,101799.81
2022-10-11T18:16:15.855Z,101799.31
2022-10-11T18:18:43.695Z,101804.88
2022-10-11T18:21:11.879Z,101802.53
2022-10-11T18:23:39.513Z,101796.53
2022-10-11T18:26:21.078Z,101806.59
2022-10-11T18:28:49.341Z,101808.66
2022-10-11T18:31:19.969Z,101798.31
2022-10-11T18:33:47.820Z,101799.25
2022-10-11T18:36:16.650Z,101795.09
2022-10-11T18:38:49.175Z,101798.31
2022-10-11T18:41:19.537Z,101796.00
2022-10-11T18:43:54.515Z,101804.66
2022-10-11T18:46:22.820Z,101802.44
2022-10-11T18:48:52.499Z,101808.97
2022-10-11T18:51:32.149Z,101803.22
2022-10-11T18:54:00.389Z,101811.66
2022-10-11T18:56:29.050Z,101809.00
2022-10-11T18:58:57.398Z,101824.72
2022-10-11T19:01:28.868Z,101822.81
2022-10-11T19:03:59.033Z,101819.16
2022-10-11T19:06:32.862Z,101813.50
2022-10-11T19:09:11.903Z,101815.06
2022-10-11T19:11:39.838Z,101814.81
2022-10-11T19:14:11.292Z,101820.56
2022-10-11T19:16:42.098Z,101827.41
2022-10-11T19:19:11.785Z,101828.75
2022-10-11T19:21:39.419Z,101827.56
2022-10-11T19:24:06.918Z,101827.00
2022-10-11T19:26:37.084Z,101820.06
2022-10-11T19:29:07.962Z,101832.56
2022-10-11T19:31:40.411Z,101827.75
2022-10-11T19:34:07.622Z,101833.38
2022-10-11T19:36:36.846Z,101834.25
2022-10-11T19:39:05.740Z,101831.00
2022-10-11T19:41:34.093Z,101830.44
2022-10-11T19:44:01.225Z,101829.03
2022-10-11T19:49:17.733Z,101820.47
2022-10-11T19:51:44.958Z,101832.22
2022-10-11T19:54:13.739Z,101830.78
2022-10-11T19:56:40.876Z,101831.00
2022-10-11T19:59:08.503Z,101830.22
2022-10-11T20:01:36.452Z,101842.50
2022-10-11T20:04:06.585Z,101849.84
2022-10-11T20:06:38.631Z,101853.78
2022-10-11T20:09:28.627Z,101849.00
2022-10-11T20:11:55.209Z,101860.78
2022-10-11T20:14:22.468Z,101858.91
2022-10-11T20:16:50.567Z,101856.41
2022-10-11T20:19:18.531Z,101859.75
2022-10-11T20:21:45.721Z,101865.09
2022-10-11T20:24:13.036Z,101875.56
2022-10-11T20:26:40.263Z,101870.59
2022-10-11T20:29:07.391Z,101876.97
2022-10-11T20:31:38.402Z,101875.16
2022-10-11T20:34:07.274Z,101872.44
2022-10-11T20:36:36.122Z,101878.97
2022-10-11T20:39:05.333Z,101879.06
2022-10-11T20:41:37.020Z,101877.72
2022-10-11T20:44:05.165Z,101883.25
2022-10-11T20:46:34.507Z,101895.03
2022-10-11T20:49:07.768Z,101906.25
2022-10-11T20:51:36.988Z,101893.03
2022-10-11T20:54:04.755Z,101900.59
2022-10-11T20:56:32.234Z,101912.59
2022-10-11T20:58:59.571Z,101906.28
2022-10-11T21:01:33.218Z,101899.84
2022-10-11T21:04:01.209Z,101892.91
2022-10-11T21:06:29.579Z,101902.00
2022-10-11T21:08:58.985Z,101903.22
2022-10-11T21:11:27.028Z,101903.31
2022-10-11T21:13:58.940Z,101901.75
2022-10-11T21:16:26.481Z,101891.22
2022-10-11T21:18:55.544Z,101899.34
2022-10-11T21:21:23.985Z,101901.63
2022-10-11T21:23:55.426Z,101901.16
2022-10-11T21:26:22.837Z,101904.06
2022-10-11T21:28:50.084Z,101894.75
2022-10-11T21:31:19.683Z,101900.66
2022-10-11T21:33:46.856Z,101900.13
2022-10-11T21:36:17.349Z,101892.94
2022-10-11T21:38:45.114Z,101892.78
2022-10-11T21:41:15.390Z,101892.94
2022-10-11T21:43:42.980Z,101892.00
2022-10-11T21:46:16.130Z,101892.16
2022-10-11T21:48:43.894Z,101886.25
2022-10-11T21:51:21.752Z,101903.00
2022-10-11T21:53:48.880Z,101897.88
2022-10-11T21:56:15.986Z,101886.44
2022-10-11T21:58:43.146Z,101890.88
2022-10-11T22:01:11.035Z,101895.19
2022-10-11T22:03:38.130Z,101901.53
2022-10-11T22:06:05.649Z,101903.34
2022-10-11T22:08:33.182Z,101901.91
2022-10-11T22:11:01.506Z,101888.75
2022-10-11T22:13:31.224Z,101891.63
2022-10-11T22:16:01.851Z,101888.28
2022-10-11T22:18:33.295Z,101883.09
2022-10-11T22:21:13.388Z,101886.78
2022-10-11T22:23:46.455Z,101885.25
2022-10-11T22:26:26.050Z,101891.59
2022-10-11T22:28:53.423Z,101895.97
2022-10-11T22:31:21.950Z,101895.38
2022-10-11T22:33:53.773Z,101897.34
2022-10-11T22:36:21.275Z,101896.66
2022-10-11T22:38:48.385Z,101901.28
2022-10-11T22:41:15.478Z,101893.41
2022-10-11T22:43:42.672Z,101893.50
2022-10-11T22:46:10.330Z,101885.41
2022-10-11T22:48:37.697Z,101882.94
2022-10-11T22:51:04.962Z,101884.72
2022-10-11T22:53:32.374Z,101878.91
2022-10-11T22:55:59.497Z,101888.16
2022-10-11T22:58:26.974Z,101887.31
2022-10-11T23:00:54.107Z,101882.16
2022-10-11T23:03:21.281Z,101884.81
2022-10-11T23:05:56.500Z,101886.88
2022-10-11T23:08:23.758Z,101893.31
2022-10-11T23:10:51.133Z,101901.63
2022-10-11T23:13:18.387Z,101907.03
2022-10-11T23:15:45.610Z,101897.41
2022-10-11T23:18:12.858Z,101894.16
2022-10-11T23:20:39.998Z,101899.63
2022-10-11T23:23:07.442Z,101900.31
2022-10-11T23:25:34.547Z,101904.59
2022-10-11T23:28:02.088Z,101905.03
2022-10-11T23:30:29.542Z,101903.47
2022-10-11T23:32:56.918Z,101904.97
2022-10-11T23:35:24.240Z,101910.38
2022-10-11T23:37:54.011Z,101902.50
2022-10-11T23:40:21.206Z,101910.78
2022-10-11T23:42:48.338Z,101917.13
2022-10-11T23:45:15.542Z,101914.53
2022-10-11T23:47:42.662Z,101918.84
2022-10-11T23:50:10.244Z,101913.59
2022-10-11T23:52:37.361Z,101925.16
2022-10-11T23:55:04.787Z,101920.09
2022-10-11T23:57:31.870Z,101921.09
2022-10-11T23:59:59.088Z,101931.91
